createdAt,value
2023-04-15T00:01:24.105Z,14.40
2023-04-15T00:06:26.399Z,14.60
2023-04-15T00:11:28.952Z,13.45
2023-04-15T00:16:31.491Z,13.77
2023-04-15T00:21:49.165Z,14.68
2023-04-15T00:26:51.407Z,14.35
2023-04-15T00:31:53.595Z,17.30
2023-04-15T00:36:55.832Z,17.77
2023-04-15T00:41:58.116Z,17.33
2023-04-15T00:47:02.059Z,17.40
2023-04-15T00:52:04.462Z,18.37
2023-04-15T00:57:07.234Z,18.70
2023-04-15T01:02:09.537Z,17.23
2023-04-15T01:07:12.095Z,17.33
2023-04-15T01:12:18.486Z,17.30
2023-04-15T01:17:21.082Z,17.52
2023-04-15T01:22:24.372Z,18.85
2023-04-15T01:27:26.643Z,17.15
2023-04-15T01:32:29.334Z,17.13
2023-04-15T01:37:33.494Z,17.62
2023-04-15T01:42:36.876Z,17.75
2023-04-15T01:47:39.409Z,16.45
2023-04-15T01:52:44.309Z,18.75
2023-04-15T01:57:46.719Z,16.43
2023-04-15T02:02:49.559Z,17.92
2023-04-15T02:07:52.270Z,17.60
2023-04-15T02:12:57.320Z,19.15
2023-04-15T02:18:00.960Z,18.08
2023-04-15T02:23:03.250Z,18.07
2023-04-15T02:28:06.492Z,17.10
2023-04-15T02:33:08.733Z,18.33
2023-04-15T02:38:11.636Z,17.17
2023-04-15T02:43:13.813Z,18.25
2023-04-15T02:48:18.116Z,17.80
2023-04-15T02:53:20.850Z,18.37
2023-04-15T02:58:23.049Z,16.00
2023-04-15T03:03:25.346Z,18.02
2023-04-15T03:08:27.573Z,17.23
2023-04-15T03:13:29.782Z,18.57
2023-04-15T03:18:31.947Z,17.87
2023-04-15T03:23:34.061Z,16.40
2023-04-15T03:28:36.569Z,16.12
2023-04-15T03:33:38.729Z,16.05
2023-04-15T03:38:41.091Z,17.70
2023-04-15T03:43:43.330Z,16.87
2023-04-15T03:48:45.526Z,16.85
2023-04-15T03:53:47.724Z,22.02
2023-04-15T03:58:49.838Z,17.00
2023-04-15T04:03:52.528Z,16.10
2023-04-15T04:08:54.819Z,18.27
2023-04-15T04:13:56.922Z,16.40
2023-04-15T04:18:59.381Z,18.42
2023-04-15T04:24:01.796Z,17.77
2023-04-15T04:29:04.123Z,18.97
2023-04-15T04:34:06.640Z,26.65
2023-04-15T04:39:09.017Z,36.20
2023-04-15T04:44:11.186Z,23.15
2023-04-15T04:49:13.326Z,22.00
2023-04-15T04:54:16.244Z,18.47
2023-04-15T04:59:19.494Z,17.62
2023-04-15T05:04:21.758Z,17.27
2023-04-15T05:09:26.619Z,15.88
2023-04-15T05:14:28.745Z,15.38
2023-04-15T05:19:30.979Z,16.47
2023-04-15T05:24:33.132Z,16.42
2023-04-15T05:29:35.266Z,15.73
2023-04-15T05:34:38.718Z,14.23
2023-04-15T05:39:40.896Z,15.88
2023-04-15T05:44:43.222Z,13.30
2023-04-15T05:49:45.535Z,11.57
2023-04-15T05:54:47.712Z,12.10
2023-04-15T05:59:52.410Z,11.65
2023-04-15T06:04:54.641Z,12.18
2023-04-15T06:09:57.022Z,12.80
2023-04-15T06:15:00.513Z,12.30
2023-04-15T06:20:03.677Z,12.63
2023-04-15T06:25:08.211Z,11.68
2023-04-15T06:30:10.819Z,12.25
2023-04-15T06:35:13.034Z,10.23
2023-04-15T06:40:15.354Z,10.80
2023-04-15T06:45:18.838Z,10.70
2023-04-15T06:50:21.001Z,11.63
2023-04-15T06:55:23.256Z,11.38
2023-04-15T07:00:25.659Z,10.30
2023-04-15T07:05:28.126Z,9.82
2023-04-15T07:10:30.705Z,9.75
2023-04-15T07:15:33.607Z,10.40
2023-04-15T07:20:36.336Z,10.27
2023-04-15T07:25:38.580Z,9.00
2023-04-15T07:30:41.664Z,8.45
2023-04-15T07:35:44.132Z,8.10
2023-04-15T07:40:46.937Z,8.93
2023-04-15T07:45:49.154Z,9.25
2023-04-15T07:50:51.682Z,7.83
2023-04-15T07:55:53.970Z,7.90
2023-04-15T08:00:56.289Z,9.07
2023-04-15T08:06:01.115Z,8.10
2023-04-15T08:11:03.308Z,7.47
2023-04-15T08:16:18.665Z,7.53
2023-04-15T08:21:21.090Z,6.70
2023-04-15T08:26:23.525Z,6.90
2023-04-15T08:31:29.896Z,6.40
2023-04-15T08:36:32.622Z,6.37
2023-04-15T08:41:41.286Z,6.17
2023-04-15T08:46:44.772Z,6.00
2023-04-15T08:51:47.743Z,5.45
2023-04-15T08:56:50.864Z,5.95
2023-04-15T09:01:53.601Z,5.40
2023-04-15T09:06:57.602Z,5.70
2023-04-15T09:12:01.646Z,5.28
2023-04-15T09:17:04.798Z,5.70
2023-04-15T09:22:07.106Z,5.60
2023-04-15T09:27:09.387Z,5.12
2023-04-15T09:32:15.684Z,6.23
2023-04-15T09:37:31.756Z,4.32
2023-04-15T09:42:34.668Z,5.82
2023-04-15T09:47:37.126Z,4.70
2023-04-15T09:52:43.976Z,4.32
2023-04-15T09:57:49.565Z,3.97
2023-04-15T10:02:52.354Z,6.03
2023-04-15T10:07:54.979Z,6.82
2023-04-15T10:12:57.356Z,8.10
2023-04-15T10:18:01.511Z,8.63
2023-04-15T10:23:04.345Z,7.77
2023-04-15T10:28:09.009Z,5.60
2023-04-15T10:33:11.586Z,5.97
2023-04-15T10:38:39.193Z,6.75
2023-04-15T10:44:25.167Z,6.12
2023-04-15T10:49:27.561Z,5.13
2023-04-15T10:54:29.657Z,3.55
2023-04-15T10:59:32.688Z,4.72
2023-04-15T11:04:54.016Z,3.62
2023-04-15T11:09:56.590Z,4.70
2023-04-15T11:14:58.857Z,4.40
2023-04-15T11:20:01.391Z,4.22
2023-04-15T11:25:04.609Z,4.95
2023-04-15T11:30:27.100Z,3.87
2023-04-15T11:35:30.705Z,4.40
2023-04-15T11:40:36.433Z,4.13
2023-04-15T11:45:53.039Z,3.72
2023-04-15T11:51:10.097Z,5.32
2023-04-15T11:56:30.809Z,4.27
2023-04-15T12:01:39.379Z,2.60
2023-04-15T12:06:41.898Z,3.03
2023-04-15T12:11:44.046Z,3.12
2023-04-15T12:16:52.659Z,3.28
2023-04-15T12:22:01.450Z,4.67
2023-04-15T12:27:09.352Z,4.40
2023-04-15T12:32:18.619Z,4.13
2023-04-15T12:37:20.988Z,4.47
2023-04-15T12:42:23.240Z,3.55
2023-04-15T12:47:25.482Z,3.58
2023-04-15T12:52:27.755Z,3.95
2023-04-15T12:57:29.958Z,5.93
2023-04-15T13:02:32.438Z,4.55
2023-04-15T13:07:34.767Z,3.87
2023-04-15T13:12:37.430Z,5.57
2023-04-15T13:17:39.668Z,6.85
2023-04-15T13:22:42.637Z,5.90
2023-04-15T13:27:44.863Z,6.62
2023-04-15T13:32:48.782Z,4.90
2023-04-15T13:37:54.305Z,4.55
2023-04-15T13:42:57.793Z,4.65
2023-04-15T13:47:59.999Z,4.03
2023-04-15T13:53:02.583Z,5.22
2023-04-15T13:58:04.810Z,5.30
2023-04-15T14:03:07.187Z,5.55
2023-04-15T14:08:09.525Z,5.78
2023-04-15T14:13:11.779Z,7.00
2023-04-15T14:18:14.084Z,8.07
2023-04-15T14:23:16.395Z,8.00
2023-04-15T14:28:18.547Z,8.00
2023-04-15T14:33:22.344Z,7.62
2023-04-15T14:38:24.527Z,7.63
2023-04-15T14:43:28.178Z,8.52
2023-04-15T14:48:32.121Z,9.00
2023-04-15T14:53:35.455Z,9.07
2023-04-15T14:58:37.964Z,9.07
2023-04-15T15:03:40.472Z,8.93
2023-04-15T15:08:45.870Z,7.72
2023-04-15T15:13:49.765Z,7.22
2023-04-15T15:18:52.114Z,6.40
2023-04-15T15:23:54.523Z,6.10
2023-04-15T15:28:56.715Z,6.03
2023-04-15T15:33:58.878Z,4.75
2023-04-15T15:39:00.996Z,4.32
2023-04-15T15:44:04.369Z,3.05
2023-04-15T15:49:07.393Z,4.30
2023-04-15T15:54:09.564Z,6.23
2023-04-15T15:59:11.726Z,4.70
2023-04-15T16:04:14.022Z,6.12
2023-04-15T16:09:16.906Z,6.43
2023-04-15T16:14:22.167Z,6.20
2023-04-15T16:19:24.316Z,5.87
2023-04-15T16:24:27.560Z,7.32
2023-04-15T16:29:29.703Z,7.07
2023-04-15T16:34:32.449Z,7.55
2023-04-15T16:39:34.782Z,7.95
2023-04-15T16:44:37.106Z,8.13
2023-04-15T16:49:39.390Z,7.45
2023-04-15T16:54:41.665Z,7.93
2023-04-15T16:59:43.806Z,7.18
2023-04-15T17:04:45.969Z,7.47
2023-04-15T17:09:48.078Z,7.47
2023-04-15T17:14:50.252Z,7.20
2023-04-15T17:19:52.495Z,6.90
2023-04-15T17:24:54.724Z,7.40
2023-04-15T17:29:57.576Z,8.88
2023-04-15T17:35:06.038Z,9.30
2023-04-15T17:40:09.049Z,8.10
2023-04-15T17:45:11.570Z,8.00
2023-04-15T17:50:13.761Z,8.20
2023-04-15T17:55:15.982Z,8.63
2023-04-15T18:00:18.361Z,8.80
2023-04-15T18:05:20.932Z,9.07
2023-04-15T18:10:24.097Z,9.18
2023-04-15T18:15:26.462Z,9.80
2023-04-15T18:20:29.189Z,9.73
2023-04-15T18:25:32.082Z,10.87
2023-04-15T18:30:34.234Z,8.82
2023-04-15T18:35:36.728Z,10.25
2023-04-15T18:40:38.920Z,9.90
2023-04-15T18:45:41.281Z,10.82
2023-04-15T18:50:43.650Z,12.57
2023-04-15T18:55:45.840Z,11.30
2023-04-15T19:00:48.057Z,11.48
2023-04-15T19:05:50.650Z,10.95
2023-04-15T19:10:53.397Z,11.32
2023-04-15T19:15:55.548Z,11.57
2023-04-15T19:20:57.909Z,14.45
2023-04-15T19:26:02.147Z,11.60
2023-04-15T19:31:04.613Z,11.15
2023-04-15T19:36:07.860Z,13.30
2023-04-15T19:41:11.079Z,15.00
2023-04-15T19:46:13.529Z,13.93
2023-04-15T19:51:15.910Z,16.05
2023-04-15T19:56:18.054Z,20.27
2023-04-15T20:01:21.035Z,18.00
2023-04-15T20:06:23.414Z,18.73
2023-04-15T20:12:09.929Z,18.75
2023-04-15T20:16:51.532Z,19.37
2023-04-15T20:21:54.444Z,18.77
2023-04-15T20:26:57.675Z,16.95
2023-04-15T20:31:59.806Z,20.23
2023-04-15T20:37:02.162Z,15.75
2023-04-15T20:42:10.883Z,19.35
2023-04-15T20:47:13.921Z,17.98
2023-04-15T20:52:16.406Z,17.37
2023-04-15T20:57:20.305Z,16.23
2023-04-15T21:02:23.760Z,19.40
2023-04-15T21:07:26.211Z,16.62
2023-04-15T21:12:31.329Z,16.85
2023-04-15T21:17:35.362Z,19.92
2023-04-15T21:22:37.687Z,18.03
2023-04-15T21:27:39.828Z,19.20
2023-04-15T21:32:42.011Z,20.17
2023-04-15T21:37:44.222Z,19.42
2023-04-15T21:42:47.496Z,20.17
2023-04-15T21:48:00.862Z,21.93
2023-04-15T21:53:09.913Z,21.25
2023-04-15T21:58:13.461Z,21.42
2023-04-15T22:03:16.613Z,24.33
2023-04-15T22:08:18.915Z,22.55
2023-04-15T22:13:21.174Z,23.17
2023-04-15T22:18:23.443Z,22.42
2023-04-15T22:23:25.585Z,24.85
2023-04-15T22:28:27.830Z,23.62
2023-04-15T22:33:30.057Z,23.92
2023-04-15T22:38:32.296Z,25.33
2023-04-15T22:43:34.456Z,21.52
2023-04-15T22:48:36.757Z,19.85
2023-04-15T22:53:38.911Z,20.27
2023-04-15T22:58:41.140Z,20.75
2023-04-15T23:03:56.077Z,21.07
2023-04-15T23:09:06.935Z,25.52
2023-04-15T23:14:09.176Z,23.92
2023-04-15T23:19:11.709Z,27.30
2023-04-15T23:24:14.173Z,27.98
2023-04-15T23:29:16.367Z,27.80
2023-04-15T23:34:18.546Z,29.15
2023-04-15T23:39:20.834Z,30.73
2023-04-15T23:44:23.383Z,25.37
2023-04-15T23:49:25.695Z,26.15
2023-04-15T23:54:27.844Z,25.67
2023-04-15T23:59:30.035Z,26.10
